Time;durP1;ratioP1;P1;durP2;ratioP2;P2;SDS_P1;SDS_P2;PMS_P1;PMS_P2;Temp;Humidity;BMP_temperature;BMP_pressure;BME280_temperature;BME280_humidity;BME280_pressure;Samples;Min_cycle;Max_cycle;Signal;HPM_P1;HPM_P2
2023/07/21 00:01:36;;;;;;;;;;;22.90;52.80;;;;;;10332652;28;94008;-64
2023/07/21 00:06:38;;;;;;;;;;;22.90;52.80;;;;;;10331445;28;93662;-64
2023/07/21 00:11:40;;;;;;;;;;;23.00;52.90;;;;;;10331046;28;93419;-62
2023/07/21 00:16:42;;;;;;;;;;;23.00;52.90;;;;;;10328365;28;95819;-63
2023/07/21 00:21:44;;;;;;;;;;;22.90;52.80;;;;;;10331602;28;94368;-64
2023/07/21 00:26:46;;;;;;;;;;;23.00;52.90;;;;;;10331775;28;94488;-64
2023/07/21 00:31:49;;;;;;;;;;;23.00;52.90;;;;;;10330769;28;93627;-63
2023/07/21 00:36:53;;;;;;;;;;;23.00;53.00;;;;;;10330279;28;93924;-64
2023/07/21 00:41:55;;;;;;;;;;;23.00;53.00;;;;;;10331762;28;94442;-64
2023/07/21 00:46:57;;;;;;;;;;;22.90;53.00;;;;;;10329959;28;94121;-64
2023/07/21 00:51:59;;;;;;;;;;;23.00;53.00;;;;;;10330259;28;92153;-65
2023/07/21 00:57:01;;;;;;;;;;;23.00;53.00;;;;;;10330100;28;94409;-64
2023/07/21 01:02:03;;;;;;;;;;;23.00;53.10;;;;;;10331100;28;94569;-64
2023/07/21 01:07:06;;;;;;;;;;;23.00;53.10;;;;;;10327722;28;96868;-64
2023/07/21 01:12:08;;;;;;;;;;;23.00;53.10;;;;;;10329839;28;93400;-64
2023/07/21 01:17:10;;;;;;;;;;;23.00;53.00;;;;;;10328299;28;94465;-65
2023/07/21 01:22:15;;;;;;;;;;;23.00;53.10;;;;;;10330478;28;94589;-65
2023/07/21 01:27:21;;;;;;;;;;;23.00;53.20;;;;;;10329505;28;92967;-64
2023/07/21 01:32:26;;;;;;;;;;;23.00;53.10;;;;;;10330344;28;94360;-64
2023/07/21 01:37:28;;;;;;;;;;;23.00;53.20;;;;;;10312859;28;94353;-65
2023/07/21 01:42:30;;;;;;;;;;;23.00;53.20;;;;;;10329725;28;92698;-64
2023/07/21 01:47:33;;;;;;;;;;;23.00;53.20;;;;;;10329033;28;94413;-64
2023/07/21 01:52:36;;;;;;;;;;;23.00;53.20;;;;;;10328059;28;94141;-64
2023/07/21 01:57:38;;;;;;;;;;;23.00;53.20;;;;;;10325982;28;96811;-64
2023/07/21 02:02:41;;;;;;;;;;;23.00;53.30;;;;;;10328600;28;93464;-64
2023/07/21 02:07:44;;;;;;;;;;;23.00;53.30;;;;;;10328471;28;94691;-64
2023/07/21 02:12:46;;;;;;;;;;;23.00;53.30;;;;;;10327847;28;93614;-64
2023/07/21 02:17:48;;;;;;;;;;;22.90;53.30;;;;;;10327831;28;94387;-64
2023/07/21 02:22:50;;;;;;;;;;;23.00;53.40;;;;;;10327394;28;93417;-64
2023/07/21 02:27:51;;;;;;;;;;;23.00;53.40;;;;;;10329256;28;94811;-64
2023/07/21 02:32:53;;;;;;;;;;;23.00;53.40;;;;;;10336166;28;93707;-64
2023/07/21 02:38:00;;;;;;;;;;;23.00;53.40;;;;;;10334652;28;93524;-64
2023/07/21 02:43:02;;;;;;;;;;;22.90;53.40;;;;;;10334769;28;94389;-65
2023/07/21 02:48:07;;;;;;;;;;;22.90;53.40;;;;;;10331567;28;96169;-65
2023/07/21 02:53:09;;;;;;;;;;;22.90;53.50;;;;;;10316707;28;94475;-65
2023/07/21 02:58:12;;;;;;;;;;;23.00;53.50;;;;;;10335004;28;93485;-65
2023/07/21 03:03:14;;;;;;;;;;;22.90;53.40;;;;;;10334361;28;93479;-65
2023/07/21 03:08:26;;;;;;;;;;;23.00;53.50;;;;;;10315879;28;93645;-65
2023/07/21 03:13:28;;;;;;;;;;;23.00;53.50;;;;;;10333560;28;94408;-65
2023/07/21 03:18:30;;;;;;;;;;;22.90;53.50;;;;;;10334310;28;94371;-65
2023/07/21 03:23:32;;;;;;;;;;;23.00;53.50;;;;;;10316281;28;93717;-65
2023/07/21 03:28:33;;;;;;;;;;;23.00;53.50;;;;;;10332313;28;94594;-65
2023/07/21 03:33:35;;;;;;;;;;;23.00;53.50;;;;;;10332869;28;94483;-65
2023/07/21 03:38:37;;;;;;;;;;;23.00;53.60;;;;;;10312033;28;97009;-64
2023/07/21 03:43:39;;;;;;;;;;;23.00;53.60;;;;;;10332663;28;93416;-65
2023/07/21 05:00:01;;;;;;;;;;;22.70;53.90;;;;;;10369277;28;93784;-61
2023/07/21 05:05:03;;;;;;;;;;;22.70;54.00;;;;;;10372084;28;94086;-62
2023/07/21 05:10:05;;;;;;;;;;;22.70;54.00;;;;;;10371378;28;94443;-62
2023/07/21 05:15:08;;;;;;;;;;;22.80;54.10;;;;;;10353425;28;94603;-62
2023/07/21 05:20:11;;;;;;;;;;;22.80;54.20;;;;;;10372494;28;93664;-61
2023/07/21 05:25:17;;;;;;;;;;;22.80;54.20;;;;;;10371833;28;94414;-61
2023/07/21 05:30:19;;;;;;;;;;;22.80;54.20;;;;;;10368419;28;92846;-62
2023/07/21 05:35:22;;;;;;;;;;;22.80;54.20;;;;;;10367323;28;96810;-62
2023/07/21 05:40:23;;;;;;;;;;;22.80;54.20;;;;;;10371044;28;93208;-62
2023/07/21 05:45:25;;;;;;;;;;;22.80;54.30;;;;;;10369279;28;94424;-61
2023/07/21 05:50:27;;;;;;;;;;;22.80;54.30;;;;;;10337342;28;93594;-61
2023/07/21 05:55:29;;;;;;;;;;;22.80;54.50;;;;;;10326353;28;94373;-62
2023/07/21 06:00:36;;;;;;;;;;;22.80;55.50;;;;;;10326944;28;94443;-62
2023/07/21 06:05:38;;;;;;;;;;;22.80;57.10;;;;;;10328783;28;94503;-62
2023/07/21 06:10:40;;;;;;;;;;;22.80;57.10;;;;;;10310551;28;93671;-62
2023/07/21 06:15:42;;;;;;;;;;;22.90;57.10;;;;;;10310135;28;94029;-61
2023/07/21 06:20:44;;;;;;;;;;;22.90;56.80;;;;;;10328343;28;93919;-61
2023/07/21 06:25:46;;;;;;;;;;;23.00;56.50;;;;;;10325348;28;95838;-62
2023/07/21 06:30:48;;;;;;;;;;;23.00;56.30;;;;;;10305829;28;94016;-67
2023/07/21 06:35:50;;;;;;;;;;;23.00;56.30;;;;;;10328507;28;94556;-67
2023/07/21 06:40:52;;;;;;;;;;;23.00;56.30;;;;;;10327301;28;92862;-62
2023/07/21 06:45:54;;;;;;;;;;;23.00;56.20;;;;;;10325933;28;93383;-62
2023/07/21 06:50:56;;;;;;;;;;;23.00;56.10;;;;;;10326292;28;92533;-62
2023/07/21 06:55:58;;;;;;;;;;;23.00;56.00;;;;;;10326552;28;93398;-63
2023/07/21 07:01:00;;;;;;;;;;;23.10;56.00;;;;;;10308847;28;92735;-63
2023/07/21 07:06:02;;;;;;;;;;;23.10;55.90;;;;;;10308548;28;93543;-62
2023/07/21 07:11:04;;;;;;;;;;;23.10;56.00;;;;;;10323878;28;94235;-62
2023/07/21 07:16:06;;;;;;;;;;;23.10;55.90;;;;;;10310993;28;95819;-62
2023/07/21 07:21:08;;;;;;;;;;;23.10;55.80;;;;;;10316158;28;94428;-62
2023/07/21 07:26:10;;;;;;;;;;;23.10;55.70;;;;;;10333743;28;93394;-62
2023/07/21 07:31:12;;;;;;;;;;;23.10;55.70;;;;;;10333422;28;93403;-62
2023/07/21 07:36:14;;;;;;;;;;;23.10;55.80;;;;;;10332741;28;94384;-62
2023/07/21 07:41:17;;;;;;;;;;;23.10;55.90;;;;;;10330937;28;94240;-63
2023/07/21 07:46:19;;;;;;;;;;;23.10;55.70;;;;;;10332372;28;93880;-62
2023/07/21 07:51:21;;;;;;;;;;;23.10;55.70;;;;;;10333428;28;92512;-62
2023/07/21 07:56:24;;;;;;;;;;;23.10;55.70;;;;;;10298500;28;93727;-62
2023/07/21 08:01:26;;;;;;;;;;;23.10;55.70;;;;;;10332208;28;93376;-62
2023/07/21 08:06:29;;;;;;;;;;;23.10;55.80;;;;;;10329003;28;96444;-62
2023/07/21 08:11:31;;;;;;;;;;;23.10;55.70;;;;;;10332656;28;94551;-62
2023/07/21 08:16:35;;;;;;;;;;;23.10;55.70;;;;;;10332198;28;94458;-62
2023/07/21 08:21:38;;;;;;;;;;;23.10;55.60;;;;;;10329302;28;93124;-62
2023/07/21 08:26:39;;;;;;;;;;;23.10;55.60;;;;;;10330862;28;94128;-62
2023/07/21 08:31:41;;;;;;;;;;;23.10;55.50;;;;;;10332630;28;93444;-63
2023/07/21 08:36:43;;;;;;;;;;;23.10;55.60;;;;;;10331828;28;94507;-62
2023/07/21 08:41:55;;;;;;;;;;;23.10;55.60;;;;;;10315782;28;92639;-62
2023/07/21 08:46:57;;;;;;;;;;;23.10;55.50;;;;;;10330721;28;93770;-62
2023/07/21 08:51:59;;;;;;;;;;;23.10;55.40;;;;;;10330233;28;93876;-62
2023/07/21 08:57:01;;;;;;;;;;;23.10;55.40;;;;;;10329327;28;96974;-62
2023/07/21 09:02:02;;;;;;;;;;;23.10;55.40;;;;;;10312425;28;93330;-62
2023/07/21 09:07:04;;;;;;;;;;;23.10;55.30;;;;;;10330087;28;93411;-62
2023/07/21 09:12:07;;;;;;;;;;;23.10;55.20;;;;;;10330197;28;94391;-62
2023/07/21 09:17:10;;;;;;;;;;;23.10;55.20;;;;;;10330390;28;92874;-62
2023/07/21 09:22:12;;;;;;;;;;;23.10;55.20;;;;;;10330531;28;94481;-62
2023/07/21 09:27:18;;;;;;;;;;;23.10;55.30;;;;;;10311945;28;94398;-62
2023/07/21 09:32:22;;;;;;;;;;;23.20;55.30;;;;;;10313288;28;113994;-62
2023/07/21 09:37:25;;;;;;;;;;;23.10;55.30;;;;;;10310032;28;93456;-62
2023/07/21 09:42:28;;;;;;;;;;;23.20;55.30;;;;;;10329146;28;93543;-62
2023/07/21 09:47:30;;;;;;;;;;;23.20;55.20;;;;;;10326696;28;96993;-62
2023/07/21 09:52:37;;;;;;;;;;;23.30;55.00;;;;;;10288504;28;93551;-62
2023/07/21 09:57:49;;;;;;;;;;;23.30;55.00;;;;;;10287667;28;93571;-63
2023/07/21 10:02:51;;;;;;;;;;;23.40;54.90;;;;;;10270408;28;93432;-63
2023/07/21 10:07:54;;;;;;;;;;;23.40;54.90;;;;;;10302263;28;94759;-63
2023/07/21 10:12:57;;;;;;;;;;;23.40;54.80;;;;;;10253095;28;94364;-63
2023/07/21 10:18:10;;;;;;;;;;;23.40;54.80;;;;;;10284909;28;93448;-62
2023/07/21 10:23:13;;;;;;;;;;;23.40;54.50;;;;;;10284491;28;93854;-61
2023/07/21 10:28:15;;;;;;;;;;;23.50;56.20;;;;;;10287583;28;92866;-63
2023/07/21 10:33:20;;;;;;;;;;;23.60;57.00;;;;;;10287053;28;94349;-62
2023/07/21 10:38:23;;;;;;;;;;;23.70;56.70;;;;;;10284538;28;95624;-63
2023/07/21 10:43:26;;;;;;;;;;;23.80;56.40;;;;;;10286490;28;93386;-63
2023/07/21 10:48:27;;;;;;;;;;;23.80;57.40;;;;;;10285288;28;93374;-65
2023/07/21 10:53:29;;;;;;;;;;;23.90;56.50;;;;;;10310025;28;93621;-66
2023/07/21 10:58:32;;;;;;;;;;;23.90;56.30;;;;;;10293252;28;93418;-65
2023/07/21 11:03:34;;;;;;;;;;;23.90;56.40;;;;;;10294149;28;94516;-67
2023/07/21 11:08:36;;;;;;;;;;;23.90;56.50;;;;;;10292033;28;94592;-66
2023/07/21 11:13:41;;;;;;;;;;;23.80;56.30;;;;;;10292022;28;93798;-65
2023/07/21 11:18:43;;;;;;;;;;;23.90;56.30;;;;;;10292678;28;94392;-66
2023/07/21 11:23:44;;;;;;;;;;;23.90;56.20;;;;;;10292430;28;94433;-66
2023/07/21 11:28:47;;;;;;;;;;;23.90;56.10;;;;;;10289920;28;96063;-66
2023/07/21 11:33:49;;;;;;;;;;;23.90;56.00;;;;;;10292061;28;92427;-65
2023/07/21 11:38:56;;;;;;;;;;;23.90;55.90;;;;;;10275138;28;93269;-65
2023/07/21 11:43:58;;;;;;;;;;;23.90;55.70;;;;;;10292148;28;94461;-65
2023/07/21 11:49:00;;;;;;;;;;;23.90;55.60;;;;;;10286523;28;93737;-66
2023/07/21 11:54:02;;;;;;;;;;;23.90;55.70;;;;;;10347831;28;93431;-66
2023/07/21 11:59:04;;;;;;;;;;;23.80;55.70;;;;;;10329087;28;93340;-65
2023/07/21 12:04:08;;;;;;;;;;;23.80;55.80;;;;;;10307440;28;94529;-66
2023/07/21 12:09:12;;;;;;;;;;;23.70;55.70;;;;;;10331905;28;93495;-62
2023/07/21 12:14:14;;;;;;;;;;;23.60;55.80;;;;;;10332613;28;93412;-63
2023/07/21 12:19:16;;;;;;;;;;;23.60;56.00;;;;;;10329687;28;96918;-63
2023/07/21 12:24:18;;;;;;;;;;;23.50;56.00;;;;;;10330979;28;94420;-62
2023/07/21 12:29:20;;;;;;;;;;;23.50;56.20;;;;;;10312811;28;93510;-62
2023/07/21 12:34:42;;;;;;;;;;;23.50;56.30;;;;;;10323463;28;95752;-62
2023/07/21 12:39:46;;;;;;;;;;;23.50;56.40;;;;;;10329115;28;93445;-62
2023/07/21 12:44:48;;;;;;;;;;;23.40;56.40;;;;;;10330311;28;93621;-65
2023/07/21 12:49:50;;;;;;;;;;;23.50;56.50;;;;;;10329762;28;94503;-65
2023/07/21 12:54:52;;;;;;;;;;;23.50;56.50;;;;;;10330865;28;92481;-66
2023/07/21 12:59:53;;;;;;;;;;;23.40;56.50;;;;;;10302209;28;94387;-65
2023/07/21 13:04:55;;;;;;;;;;;23.40;56.80;;;;;;10293821;28;94603;-63
2023/07/21 13:09:57;;;;;;;;;;;23.50;56.80;;;;;;10249838;28;95999;-61
2023/07/21 13:14:59;;;;;;;;;;;23.50;56.80;;;;;;10273609;28;93413;-62
2023/07/21 13:20:03;;;;;;;;;;;23.40;56.80;;;;;;10248597;28;94439;-65
2023/07/21 13:25:05;;;;;;;;;;;23.50;56.90;;;;;;10254669;28;93364;-66
2023/07/21 13:30:07;;;;;;;;;;;23.50;57.00;;;;;;10288733;28;93221;-66
2023/07/21 13:35:09;;;;;;;;;;;23.50;57.00;;;;;;10269214;28;93979;-66
2023/07/21 13:40:11;;;;;;;;;;;23.50;57.00;;;;;;10271865;28;93726;-65
2023/07/21 13:45:13;;;;;;;;;;;23.50;57.00;;;;;;10287964;28;93016;-66
2023/07/21 13:50:15;;;;;;;;;;;23.50;57.00;;;;;;10306875;28;94100;-66
2023/07/21 13:55:16;;;;;;;;;;;23.60;57.10;;;;;;10310283;28;94401;-66
2023/07/21 14:00:21;;;;;;;;;;;23.60;57.10;;;;;;10323246;28;96825;-66
2023/07/21 14:05:24;;;;;;;;;;;23.60;57.10;;;;;;10307728;28;94122;-65
2023/07/21 14:10:26;;;;;;;;;;;23.60;57.20;;;;;;10282672;28;93660;-66
2023/07/21 14:15:28;;;;;;;;;;;23.60;57.10;;;;;;10286560;28;93393;-65
2023/07/21 14:20:31;;;;;;;;;;;23.50;57.10;;;;;;10286567;28;94428;-66
2023/07/21 14:25:34;;;;;;;;;;;23.50;57.70;;;;;;10296963;28;94433;-66
2023/07/21 14:30:35;;;;;;;;;;;23.50;57.80;;;;;;10298519;28;92849;-67
2023/07/21 14:35:38;;;;;;;;;;;23.50;57.90;;;;;;10300656;28;93980;-65
2023/07/21 14:40:40;;;;;;;;;;;23.60;58.00;;;;;;10299736;28;92983;-68
2023/07/21 14:45:42;;;;;;;;;;;23.80;57.80;;;;;;10299616;28;94405;-60
2023/07/21 14:50:44;;;;;;;;;;;24.10;57.60;;;;;;10296747;28;95849;-61
2023/07/21 14:55:45;;;;;;;;;;;24.10;57.10;;;;;;10300610;28;92934;-60
2023/07/21 15:00:47;;;;;;;;;;;24.10;57.10;;;;;;10299679;28;93974;-61
2023/07/21 15:05:49;;;;;;;;;;;24.10;57.50;;;;;;10298294;28;94651;-60
2023/07/21 15:10:51;;;;;;;;;;;24.10;57.90;;;;;;10299161;28;94414;-61
2023/07/21 15:15:53;;;;;;;;;;;24.10;57.80;;;;;;10265398;28;93407;-61
2023/07/21 15:20:55;;;;;;;;;;;24.20;57.80;;;;;;10281332;28;93387;-61
2023/07/21 15:25:57;;;;;;;;;;;24.20;57.80;;;;;;10299639;28;93730;-66
2023/07/21 15:31:05;;;;;;;;;;;24.40;58.70;;;;;;10298598;28;93454;-66
2023/07/21 15:36:07;;;;;;;;;;;24.60;56.80;;;;;;10293934;28;93155;-65
2023/07/21 15:41:09;;;;;;;;;;;24.60;56.10;;;;;;10289092;28;95638;-64
2023/07/21 15:46:10;;;;;;;;;;;24.50;55.80;;;;;;10291784;28;94923;-63
2023/07/21 15:51:12;;;;;;;;;;;24.40;55.50;;;;;;10290775;28;94807;-64
2023/07/21 15:56:14;;;;;;;;;;;24.30;55.50;;;;;;10290956;28;94219;-64
2023/07/21 16:01:16;;;;;;;;;;;24.20;55.30;;;;;;10291629;28;93479;-65
2023/07/21 16:06:18;;;;;;;;;;;24.20;55.20;;;;;;10291202;28;94500;-64
2023/07/21 16:11:20;;;;;;;;;;;24.10;55.00;;;;;;10291186;28;94445;-64
2023/07/21 16:16:22;;;;;;;;;;;24.10;55.00;;;;;;10293453;28;93538;-64
2023/07/21 16:21:24;;;;;;;;;;;24.00;54.60;;;;;;10330846;28;94292;-65
2023/07/21 16:26:26;;;;;;;;;;;24.00;54.40;;;;;;10331888;28;94295;-65
2023/07/21 16:31:31;;;;;;;;;;;24.00;54.30;;;;;;10328594;28;96865;-65
2023/07/21 16:36:33;;;;;;;;;;;23.90;54.20;;;;;;10331368;28;94090;-65
2023/07/21 16:41:35;;;;;;;;;;;23.90;54.20;;;;;;10313467;28;94434;-65
2023/07/21 16:46:37;;;;;;;;;;;23.80;54.00;;;;;;10329277;28;93798;-65
2023/07/21 16:51:39;;;;;;;;;;;23.80;54.00;;;;;;10353374;28;94609;-60
2023/07/21 16:56:41;;;;;;;;;;;23.80;53.90;;;;;;10372630;28;94067;-61
2023/07/21 17:01:43;;;;;;;;;;;23.80;53.80;;;;;;10371696;28;93815;-61
2023/07/21 17:06:45;;;;;;;;;;;23.80;53.70;;;;;;10354456;28;92663;-61
2023/07/21 17:11:47;;;;;;;;;;;23.80;53.70;;;;;;10371829;28;94465;-61
2023/07/21 17:16:49;;;;;;;;;;;23.80;53.80;;;;;;10371871;28;94474;-61
2023/07/21 17:21:51;;;;;;;;;;;23.80;53.80;;;;;;10367812;28;96922;-61
2023/07/21 17:26:53;;;;;;;;;;;23.80;53.80;;;;;;10386293;28;94516;-61
2023/07/21 17:31:55;;;;;;;;;;;23.90;53.60;;;;;;10371027;28;93504;-61
2023/07/21 17:36:57;;;;;;;;;;;23.90;53.40;;;;;;10352146;28;93246;-61
2023/07/21 17:41:59;;;;;;;;;;;23.90;53.20;;;;;;10352783;28;94528;-61
2023/07/21 17:47:01;;;;;;;;;;;23.90;53.10;;;;;;10370116;28;94474;-61
2023/07/21 17:52:03;;;;;;;;;;;23.90;53.10;;;;;;10383787;28;95541;-61
2023/07/21 17:57:06;;;;;;;;;;;23.90;53.10;;;;;;10370337;28;93749;-61
2023/07/21 18:02:09;;;;;;;;;;;23.90;53.10;;;;;;10369620;28;93942;-61
2023/07/21 18:07:11;;;;;;;;;;;23.80;53.10;;;;;;10368826;28;93071;-61
2023/07/21 18:12:12;;;;;;;;;;;23.90;53.10;;;;;;10367121;28;95952;-61
2023/07/21 18:17:14;;;;;;;;;;;23.90;53.10;;;;;;10370498;28;94828;-61
2023/07/21 18:22:16;;;;;;;;;;;24.00;53.10;;;;;;10368621;28;93448;-61
2023/07/21 18:27:18;;;;;;;;;;;24.00;53.00;;;;;;10370050;28;93530;-61
2023/07/21 18:32:20;;;;;;;;;;;24.00;52.80;;;;;;10368071;28;92571;-62
2023/07/21 18:37:22;;;;;;;;;;;24.00;52.50;;;;;;10368866;28;93400;-65
2023/07/21 18:42:24;;;;;;;;;;;24.00;52.60;;;;;;10369059;28;93457;-66
2023/07/21 18:47:26;;;;;;;;;;;24.00;52.30;;;;;;10350839;28;92642;-65
2023/07/21 18:52:28;;;;;;;;;;;24.00;53.40;;;;;;10366640;28;92893;-66
2023/07/21 18:57:30;;;;;;;;;;;24.00;52.80;;;;;;10350682;28;94657;-66
2023/07/21 19:02:31;;;;;;;;;;;23.90;52.80;;;;;;10366295;28;96851;-65
2023/07/21 19:07:33;;;;;;;;;;;23.90;52.80;;;;;;10367576;28;93300;-65
2023/07/21 19:12:35;;;;;;;;;;;23.90;52.90;;;;;;10373612;28;94347;-65
2023/07/21 19:17:38;;;;;;;;;;;23.90;52.90;;;;;;10374471;28;92505;-65
2023/07/21 19:22:40;;;;;;;;;;;23.80;52.90;;;;;;10375454;28;92680;-65
2023/07/21 19:27:43;;;;;;;;;;;23.80;53.00;;;;;;10375322;28;93483;-66
2023/07/21 19:32:44;;;;;;;;;;;23.80;53.20;;;;;;10375009;28;93420;-66
2023/07/21 19:37:47;;;;;;;;;;;23.80;53.10;;;;;;10327721;28;93968;-66
2023/07/21 19:42:49;;;;;;;;;;;23.80;53.10;;;;;;10300126;28;96937;-66
2023/07/21 19:47:51;;;;;;;;;;;23.70;53.00;;;;;;10314850;28;93448;-66
2023/07/21 19:52:53;;;;;;;;;;;23.80;53.20;;;;;;10326373;28;96992;-65
2023/07/21 19:57:55;;;;;;;;;;;23.70;53.20;;;;;;10332775;28;93547;-65
2023/07/21 20:02:56;;;;;;;;;;;23.70;53.20;;;;;;10315409;28;93832;-66
2023/07/21 20:07:58;;;;;;;;;;;23.70;53.20;;;;;;10332777;28;94051;-65
2023/07/21 20:13:00;;;;;;;;;;;23.70;53.20;;;;;;10332189;28;93446;-66
2023/07/21 20:18:02;;;;;;;;;;;23.70;53.10;;;;;;10331806;28;93448;-64
2023/07/21 20:23:07;;;;;;;;;;;23.70;54.00;;;;;;10331087;28;94374;-67
2023/07/21 20:28:09;;;;;;;;;;;23.80;53.40;;;;;;10329185;28;93746;-66
2023/07/21 20:33:14;;;;;;;;;;;23.70;53.70;;;;;;10330678;28;93786;-66
2023/07/21 20:38:16;;;;;;;;;;;23.70;53.60;;;;;;10330794;28;94418;-66
2023/07/21 20:43:18;;;;;;;;;;;23.80;53.50;;;;;;10310019;28;95445;-66
2023/07/21 20:48:20;;;;;;;;;;;23.70;53.40;;;;;;10329078;28;93450;-66
2023/07/21 20:53:22;;;;;;;;;;;23.70;53.30;;;;;;10311106;28;93497;-65
2023/07/21 20:58:24;;;;;;;;;;;23.70;53.20;;;;;;10328682;28;93425;-65
2023/07/21 21:03:26;;;;;;;;;;;23.70;53.20;;;;;;10329153;28;93377;-66
2023/07/21 21:08:27;;;;;;;;;;;23.70;53.10;;;;;;10328914;28;94494;-66
2023/07/21 21:13:30;;;;;;;;;;;23.70;53.20;;;;;;10329752;28;93392;-66
2023/07/21 21:18:31;;;;;;;;;;;23.70;53.00;;;;;;10329635;28;93075;-61
2023/07/21 21:23:33;;;;;;;;;;;23.70;53.00;;;;;;10328537;28;94093;-66
2023/07/21 21:28:35;;;;;;;;;;;23.70;53.00;;;;;;10328327;28;93427;-66
2023/07/21 21:33:37;;;;;;;;;;;23.70;53.00;;;;;;10325125;28;95839;-66
2023/07/21 21:38:38;;;;;;;;;;;23.70;53.00;;;;;;10328359;28;93346;-66
2023/07/21 21:43:40;;;;;;;;;;;23.70;52.80;;;;;;10329304;28;94512;-66
2023/07/21 21:48:42;;;;;;;;;;;23.70;53.00;;;;;;10328427;28;94556;-67
2023/07/21 21:53:44;;;;;;;;;;;23.60;52.70;;;;;;10310942;28;94150;-66
2023/07/21 21:58:45;;;;;;;;;;;23.60;52.60;;;;;;10328261;28;92508;-65
2023/07/21 22:03:47;;;;;;;;;;;23.60;52.50;;;;;;10328572;28;94439;-66
2023/07/21 22:08:49;;;;;;;;;;;23.60;52.40;;;;;;10311161;28;93707;-65
2023/07/21 22:13:51;;;;;;;;;;;23.50;52.60;;;;;;10328732;28;96499;-65
2023/07/21 22:18:53;;;;;;;;;;;23.50;52.60;;;;;;10311379;28;94493;-66
2023/07/21 22:23:55;;;;;;;;;;;23.40;52.40;;;;;;10325389;28;97542;-66
2023/07/21 22:28:57;;;;;;;;;;;23.40;52.40;;;;;;10327924;28;93462;-65
2023/07/21 22:33:59;;;;;;;;;;;23.40;52.30;;;;;;10309956;28;93427;-61
2023/07/21 22:39:00;;;;;;;;;;;23.40;52.40;;;;;;10326840;28;94479;-61
2023/07/21 22:44:02;;;;;;;;;;;23.40;52.30;;;;;;10329192;28;94457;-61
2023/07/21 22:49:04;;;;;;;;;;;23.40;52.30;;;;;;10334122;28;94342;-60
2023/07/21 22:54:06;;;;;;;;;;;23.40;52.20;;;;;;10334036;28;93556;-60
2023/07/21 22:59:08;;;;;;;;;;;23.40;52.20;;;;;;10317728;28;93823;-61
2023/07/21 23:04:09;;;;;;;;;;;23.30;52.20;;;;;;10334592;28;94458;-61
2023/07/21 23:09:11;;;;;;;;;;;23.30;52.20;;;;;;10335217;28;94374;-61
2023/07/21 23:14:13;;;;;;;;;;;23.40;52.20;;;;;;10331418;28;95879;-61
2023/07/21 23:19:15;;;;;;;;;;;23.30;52.10;;;;;;10333706;28;93358;-61
2023/07/21 23:24:17;;;;;;;;;;;23.30;52.10;;;;;;10300011;28;94515;-61
2023/07/21 23:29:19;;;;;;;;;;;23.30;52.10;;;;;;10334741;28;94274;-61
2023/07/21 23:34:21;;;;;;;;;;;23.30;52.10;;;;;;10333667;28;94621;-61
2023/07/21 23:39:23;;;;;;;;;;;23.20;52.10;;;;;;10315798;28;94135;-61
2023/07/21 23:44:25;;;;;;;;;;;23.20;52.10;;;;;;10333692;28;93300;-61
2023/07/21 23:49:27;;;;;;;;;;;23.20;52.10;;;;;;10332891;28;93701;-60
2023/07/21 23:54:29;;;;;;;;;;;23.20;53.20;;;;;;10333748;28;93397;-61
2023/07/21 23:59:31;;;;;;;;;;;23.20;52.20;;;;;;10332381;28;94426;-60
